This is the latest recevied weather packets stored in our database for station/object KS4XQ. If no packets are shown the sender has not sent any weather packets the latest 10 day(s).
| Time | Temp. | Humidity | Pressure | Rain* | Wind** | Luminosity | Snow |
|---|---|---|---|---|---|---|---|
| 1777497003 | 26.67° C | 59% | 1008.3 hPa | 0 mm | - | - | - |
| 1777496406 | 26.67° C | 61% | 1008.5 hPa | 0 mm | - | - | - |
| 1777495802 | 26.67° C | 62% | 1008.5 hPa | 0 mm | - | - | - |
| 1777494902 | 26.67° C | 62% | 1008.7 hPa | 0 mm | - | - | - |
| 1777493402 | 26.67° C | 63% | 1009.2 hPa | 0 mm | - | - | - |
| 1777490701 | 26.11° C | 65% | 1009.8 hPa | 0 mm | - | - | - |
| 1777489203 | 26.67° C | 64% | 1010 hPa | 0 mm | - | - | - |
| 1777488302 | 26.67° C | 64% | 1010 hPa | 0 mm | - | - | - |
| 1777487703 | 26.67° C | 66% | 1010.4 hPa | 0 mm | - | - | - |
| 1777487102 | 26.67° C | 65% | 1010.5 hPa | 0 mm | - | - | - |
| 1777484103 | 24.44° C | 73% | 1011.2 hPa | 0 mm | - | - | - |
| 1777483205 | 23.89° C | 73% | 1011.4 hPa | 0 mm | - | - | - |
| 1777465201 | 16.11° C | 98% | 1013.5 hPa | 0 mm | - | - | - |
| 1777464303 | 16.11° C | 98% | 1013.4 hPa | 0 mm | - | - | - |
| 1777463701 | 16.11° C | 98% | 1013.5 hPa | 0 mm | - | - | - |
| 1777459801 | 15.56° C | 98% | 1013.9 hPa | 0 mm | - | - | - |
| 1777455601 | 15.56° C | 97% | 1014.8 hPa | 0 mm | - | - | - |
| 1777455001 | 15.56° C | 97% | 1014.8 hPa | 0 mm | - | - | - |
| 1777453203 | 15° C | 97% | 1014.4 hPa | 0 mm | - | - | - |
| 1777452001 | 15° C | 97% | 1014.6 hPa | 0 mm | - | - | - |
| 1777451100 | 15° C | 97% | 1014.8 hPa | 0 mm | - | - | - |
| 1777450801 | 15° C | 97% | 1014.8 hPa | 0 mm | - | - | - |
| 1777449302 | 15° C | 97% | 1015 hPa | 0 mm | - | - | - |
| 1777447801 | 15° C | 97% | 1014.7 hPa | 0 mm | - | - | - |
| 1777447502 | 15° C | 97% | 1014.7 hPa | 0 mm | - | - | - |
* Rain latest hour (hover to see other rain measurements)
** Current wind speed in m/s (hover to see current wind gust speed)